Historyczne dane pomiarowe

Dodano dane terminowe – wersja testowa.

Dane z okresu 1951-2019

Wersja bazy: 1.34 [2019-03-16, lista zmian], aktualizacja planowana na 2019-04-15

Dane meteo z obszaru Polski uzyskane na podstawie danych udostępnionych przez Instytut Meteorologii i Gospodarki Wodnej – Państwowy Instytut Badawczy.

 

Wybierz Datę:    

       

TemperaturaWilgotnośćWiatrCiśnienieOpadyŚniegCzas trwania zjawisk
 Stacja t tx tn tng RH VA  wxwx mslp ppp RRR   cm mm wxwxwxwxwxwxwx
1994-08-14 14.7 18.1 10.2 8.2 56.0- 3.0 3.0---- 0.0------------
1994-08-13 17.1 21.5 14.5 13.4 70.8- 6.7 5.3---- 0.2------------
1994-08-12 16.9 21.2 14.7 13.3 83.5- 8.0 2.7---- 5.1------------
1994-08-11 19.8 24.3 16.9 15.8 84.0- 4.7 5.0---- 0.5------------
1994-08-10 21.5 27.6 13.6 12.9 77.5- 3.3 2.0---- 15.1------------
1994-08-09 19.0 22.6 17.3 17.3 86.5- 8.0 3.0---- 23.3------------
1994-08-08 19.9 24.3 16.5 16.1 82.0- 7.7 3.3---- 13.0------------
1994-08-07 22.2 28.8 17.2 15.0 78.5- 5.7 2.3---- 54.3------------
1994-08-06 24.7 31.2 16.8 14.7 58.3- 3.3 2.7---- 0.0------------
1994-08-05 23.5 32.5 12.6 10.2 59.5- 0.3 1.3---- 0.0------------
1994-08-04 22.6 29.2 15.4 11.9 53.0- 1.0 2.3---- 0.0------------
1994-08-03 23.9 27.8 18.0 15.8 69.0- 5.0 3.7---- 0.0------------
1994-08-02 26.9 34.4 11.8 9.5 48.5- 3.3 3.7---- 0.0------------
1994-08-01 28.0 36.1 19.4 16.3 36.5- 0.7 3.7---- 0.0------------
1994-07-31 26.7 34.8 16.3 14.1 54.0- 4.3 3.0---- 0.0------------
1994-07-30 26.8 35.2 16.3 13.5 58.3- 1.0 2.0---- 0.0------------
1994-07-29 25.9 35.0 15.4 12.7 62.3- 1.3 1.0---- 0.0------------
1994-07-28 25.7 34.1 15.3 11.9 58.5- 2.3 1.3---- 0.0------------
1994-07-27 25.6 33.2 17.3 14.4 57.8- 6.0 1.3---- 0.0------------
1994-07-26 26.5 33.8 15.7 13.6 55.3- 4.3 2.7---- 0.0------------
1994-07-25 24.3 32.2 13.3 11.3 59.0- 2.0 1.3---- 0.0------------
1994-07-24 22.9 30.8 12.2 10.2 58.5- 1.0 1.7---- 0.0------------
1994-07-23 21.9 29.7 11.6 8.7 64.3- 1.0 3.3---- 0.0------------
1994-07-22 21.4 29.8 12.6 10.8 57.0- 0.0 3.0---- 0.0------------
1994-07-21 20.3 27.2 11.0 8.1 60.5- 0.0 3.0---- 0.0------------
1994-07-20 18.8 24.6 10.6 7.9 58.3- 1.7 2.3---- 0.0------------
1994-07-19 17.5 22.2 15.2 13.9 81.0- 8.0 3.0---- 0.0------------
1994-07-18 19.7 24.3 13.0 12.2 82.8- 7.0 4.3---- 0.0------------
1994-07-17 19.5 27.9 14.4 13.7 82.3- 6.0 0.0---- 3.0------------
1994-07-16 22.5 28.1 18.1 17.5 72.0- 6.7 2.7---- 0.0------------
1994-07-15 22.2 30.0 12.7 12.2 63.0- 6.0 3.0---- 0.0------------
1994-07-14 22.8 30.8 12.4 11.6 61.5- 3.0 2.3---- 0.0------------
1994-07-13 21.7 29.4 13.7 11.9 63.8- 0.0 3.0---- 0.0------------
1994-07-12 20.8 26.7 16.9 12.1 66.3- 7.0 5.7---- 0.5------------
1994-07-11 20.6 27.0 14.1 11.2 61.0- 4.7 5.0---- 0.0------------
1994-07-10 17.0 23.0 13.6 12.9 83.8- 6.7 5.3---- 0.8------------
1994-07-09 15.6 18.9 12.3 10.3 74.8- 8.0 5.0---- 3.1------------
1994-07-08 14.9 19.4 10.8 8.7 76.8- 5.3 7.3---- 0.3------------
1994-07-07 17.7 24.7 12.5 9.9 77.5- 6.0 3.3---- 3.0------------
1994-07-06 19.8 24.9 11.1 8.8 71.8- 3.7 2.7---- 0.0------------
1994-07-05 19.9 25.9 16.0 13.9 65.5- 7.7 3.0---- 0.0------------
1994-07-04 21.5 29.1 10.8 9.0 61.5- 2.3 2.0---- 0.0------------
1994-07-03 20.2 27.7 9.0 7.5 60.3- 0.0 2.3---- 0.0------------
1994-07-02 18.3 24.6 12.1 7.6 65.0- 0.0 3.0---- 0.0------------
1994-07-01 17.5 22.3 11.0 8.3 70.5- 4.0 2.0---- 0.0------------
1994-06-30 19.4 27.6 17.0 17.0 85.0- 8.0 3.0---- 11.4------------
1994-06-29 26.1 32.9 16.9 14.2 71.3- 4.3 2.3---- 0.0------------
1994-06-28 25.3 30.9 18.3 17.0 69.8- 6.3 1.7---- 0.0------------
1994-06-27 25.7 31.1 17.1 16.1 70.3- 4.3 1.0---- 0.0------------
1994-06-26 22.7 29.9 11.6 6.8 58.0- 4.0 2.7---- 0.0------------
1994-06-25 16.3 24.9 4.6 0.7 65.8- 0.0 1.0---- 0.0------------
1994-06-24 15.7 20.7 7.4 2.7 49.0- 1.0 2.0---- 0.0------------
1994-06-23 17.2 20.7 11.3 11.0 51.8- 2.3 4.3---- 0.0------------
1994-06-22 19.2 25.2 11.5 9.4 70.3- 6.0 3.7---- 0.0------------
1994-06-21 16.6 22.2 8.0 6.1 64.5- 4.0 1.7---- 0.0------------
1994-06-20 15.7 22.0 11.1 8.0 76.8- 6.0 3.3---- 0.0------------
1994-06-19 18.9 26.2 12.1 12.1 56.3- 4.0 4.7---- 0.0------------
1994-06-18 12.9 19.5 4.0 0.9 65.5- 7.7 5.7---- 1.0------------
1994-06-17 11.2 15.2 7.5 7.5 65.0- 7.0 6.0---- 0.0------------
1994-06-16 12.6 15.4 7.2 3.9 68.8- 8.0 6.3---- 7.9------------
294.4 ms

 

Źródłem pochodzenia danych jest Instytut Meteorologii i Gospodarki Wodnej – Państwowy Instytut Badawczy. Dane Instytutu Meteorologii i Gospodarki Wodnej – Państwowego Instytutu Badawczego zostały przetworzone.

Dane źródłowe można odnaleźć na stronie https://dane.imgw.pl